Terminal Aerodrome Forecast
Issued by NWS Melbourne, FL

Home | Current Version | Previous Version | Text Only | Print | Product List | Glossary On
Versions: 1 2 3 4 5 6 7 8 9 10 11 12 13 14 15 16 17
000
FTUS42 KMLB 281853 AAA
TAFDAB
TAF AMD
KDAB 281853Z 2819/2918 26007KT P6SM VCTS SCT035CB SCT060 BKN250
      TEMPO 2819/2821 3SM TSRA BKN035CB
     FM290100 24003KT P6SM SCT060 BKN120
     FM291400 22007KT P6SM SCT025=

USA.gov is the U.S. government's official web portal to all federal, state and local government web resources and services.